Time;durP1;ratioP1;P1;durP2;ratioP2;P2;SDS_P1;SDS_P2;PMS_P1;PMS_P2;Temp;Humidity;BMP_temperature;BMP_pressure;BME280_temperature;BME280_humidity;BME280_pressure;Samples;Min_cycle;Max_cycle;Signal;HPM_P1;HPM_P2
2023/03/23 00:01:59;;;;;;;;;;;17.10;52.20;;;17.32;35.78;98090.41;4982264;28;124682;-78
2023/03/23 00:04:26;;;;;;;;;;;17.10;52.20;;;17.30;35.87;98098.34;4965485;28;114584;-77
2023/03/23 00:06:53;;;;;;;;;;;17.00;52.30;;;17.25;36.01;98096.69;4969768;28;114515;-78
2023/03/23 00:09:23;;;;;;;;;;;17.00;52.40;;;17.22;36.17;98094.63;4961128;28;124019;-78
2023/03/23 00:11:50;;;;;;;;;;;17.00;52.60;;;17.20;36.38;98095.00;4956279;28;124511;-76
2023/03/23 00:14:22;;;;;;;;;;;16.90;52.70;;;17.18;36.33;98090.97;4964603;28;115061;-77
2023/03/23 00:16:49;;;;;;;;;;;16.90;52.80;;;17.16;36.34;98096.94;4968672;28;113827;-77
2023/03/23 00:19:18;;;;;;;;;;;16.90;52.90;;;17.16;36.58;98088.56;4948928;28;124248;-78
2023/03/23 00:21:45;;;;;;;;;;;16.90;53.00;;;17.17;36.46;98090.19;4963380;28;124674;-76
2023/03/23 00:24:16;;;;;;;;;;;16.90;53.10;;;17.16;36.46;98087.75;4962855;28;115486;-79
2023/03/23 00:26:46;;;;;;;;;;;16.90;53.20;;;17.16;37.06;98076.59;4955503;28;114653;-78
2023/03/23 00:29:15;;;;;;;;;;;16.90;53.30;;;17.17;36.67;98083.81;4962164;28;125188;-78
2023/03/23 00:31:46;;;;;;;;;;;16.90;53.50;;;17.18;36.65;98080.63;4959020;28;124232;-78
2023/03/23 00:34:19;;;;;;;;;;;16.90;53.70;;;17.20;36.60;98071.88;4968650;28;113729;-78
2023/03/23 00:36:47;;;;;;;;;;;16.90;53.70;;;17.18;36.72;98077.81;4987956;28;113595;-77
2023/03/23 00:39:15;;;;;;;;;;;16.90;53.80;;;17.16;37.03;98071.81;4987594;28;124879;-75
2023/03/23 00:41:46;;;;;;;;;;;16.80;53.70;;;17.18;36.88;98063.06;4965554;28;124215;-77
2023/03/23 00:44:18;;;;;;;;;;;16.90;53.90;;;17.19;37.00;98059.91;4971645;28;114690;-74
2023/03/23 00:46:48;;;;;;;;;;;16.90;53.90;;;17.21;36.98;98054.75;4976392;28;113777;-74
2023/03/23 00:49:17;;;;;;;;;;;16.90;53.90;;;17.24;37.02;98061.56;4951055;28;124287;-74
2023/03/23 00:51:44;;;;;;;;;;;16.90;54.00;;;17.24;36.75;98053.19;4961283;28;124594;-75
2023/03/23 00:54:10;;;;;;;;;;;16.90;53.90;;;17.25;37.16;98053.97;4954744;28;114018;-74
2023/03/23 00:56:38;;;;;;;;;;;16.90;53.90;;;17.27;37.06;98054.44;4963743;28;113930;-77
2023/03/23 00:59:05;;;;;;;;;;;16.90;54.00;;;17.28;36.89;98042.09;4966589;28;123523;-76
2023/03/23 01:01:32;;;;;;;;;;;17.00;54.00;;;17.26;36.82;98036.88;4969716;28;124019;-77
2023/03/23 01:04:03;;;;;;;;;;;17.00;54.00;;;17.28;36.87;98039.31;4959138;28;114575;-77
2023/03/23 01:06:32;;;;;;;;;;;17.00;54.00;;;17.27;36.75;98046.03;4968495;28;115083;-77
2023/03/23 01:08:58;;;;;;;;;;;17.00;54.00;;;17.28;36.94;98048.47;4950228;28;124210;-76
2023/03/23 01:11:25;;;;;;;;;;;17.00;54.00;;;17.27;36.91;98037.69;4951750;28;124658;-76
2023/03/23 01:13:52;;;;;;;;;;;16.90;53.90;;;17.26;36.90;98047.25;4955956;28;115409;-78
2023/03/23 01:16:18;;;;;;;;;;;16.90;54.00;;;17.23;36.92;98041.22;4969778;28;114874;-75
2023/03/23 01:18:45;;;;;;;;;;;16.90;54.00;;;17.21;37.02;98043.56;4958630;28;124627;-74
2023/03/23 01:21:15;;;;;;;;;;;16.90;54.00;;;17.20;36.83;98049.56;4991927;28;124134;-74
2023/03/23 01:23:41;;;;;;;;;;;16.90;54.10;;;17.16;37.03;98041.09;4969045;28;114428;-75
2023/03/23 01:26:14;;;;;;;;;;;16.80;54.00;;;17.10;36.97;98039.81;4968029;28;113814;-78
2023/03/23 01:28:40;;;;;;;;;;;16.80;54.00;;;17.06;36.86;98032.56;4953956;28;124154;-74
2023/03/23 01:31:12;;;;;;;;;;;16.80;53.90;;;17.02;36.96;98026.94;4955119;28;124408;-74
2023/03/23 01:33:40;;;;;;;;;;;16.70;53.80;;;16.99;36.91;98022.09;4962591;28;114315;-77
2023/03/23 01:36:10;;;;;;;;;;;16.70;53.90;;;16.98;37.03;98020.50;4958202;28;113864;-74
2023/03/23 01:38:36;;;;;;;;;;;16.70;54.00;;;16.97;37.17;98013.28;4962868;28;124681;-75
2023/03/23 01:41:03;;;;;;;;;;;16.70;53.90;;;16.95;37.05;98004.47;4958326;28;123754;-75
2023/03/23 01:43:30;;;;;;;;;;;16.70;53.90;;;16.94;37.51;98005.66;4959181;28;114652;-75
2023/03/23 01:45:56;;;;;;;;;;;16.70;54.00;;;16.94;36.90;98000.88;4958083;28;113806;-75
2023/03/23 01:48:31;;;;;;;;;;;16.60;53.90;;;16.92;37.15;98005.22;4967375;28;123959;-75
2023/03/23 01:51:12;;;;;;;;;;;16.60;53.90;;;16.91;37.06;98009.22;4958020;28;124579;-75
2023/03/23 01:53:45;;;;;;;;;;;16.60;54.00;;;16.89;37.11;98005.97;4948613;28;114340;-76
2023/03/23 01:56:13;;;;;;;;;;;16.60;54.00;;;16.87;37.22;98003.59;4987954;28;113645;-75
2023/03/23 01:58:40;;;;;;;;;;;16.60;54.00;;;16.88;37.04;98007.97;4958598;28;124233;-75
2023/03/23 02:01:11;;;;;;;;;;;16.60;54.00;;;16.88;37.10;97998.81;4990130;28;123676;-75
2023/03/23 02:03:40;;;;;;;;;;;16.60;54.10;;;16.85;37.30;98010.72;4975980;28;114310;-75
2023/03/23 02:06:07;;;;;;;;;;;16.60;54.10;;;16.82;37.12;98003.06;4972762;28;113975;-75
2023/03/23 02:08:34;;;;;;;;;;;16.50;54.00;;;16.77;37.12;98005.00;4953255;28;124502;-79
2023/03/23 02:11:01;;;;;;;;;;;16.50;54.10;;;16.75;37.36;97998.16;4965819;28;123068;-75
2023/03/23 02:13:28;;;;;;;;;;;16.50;54.20;;;16.73;37.38;98001.31;4961152;28;113387;-75
2023/03/23 02:15:59;;;;;;;;;;;16.50;54.20;;;16.72;37.24;97996.13;4974091;28;113909;-75
2023/03/23 02:18:35;;;;;;;;;;;16.50;54.30;;;16.70;37.38;97995.69;4979509;28;124204;-75
2023/03/23 02:21:16;;;;;;;;;;;16.50;54.30;;;16.69;37.51;97992.09;4967167;28;123965;-75
2023/03/23 02:24:10;;;;;;;;;;;16.50;54.40;;;16.68;37.50;98000.81;4994388;28;114561;-77
2023/03/23 02:27:10;;;;;;;;;;;16.40;54.40;;;16.66;37.48;98003.19;4968439;28;113669;-75
2023/03/23 02:30:05;;;;;;;;;;;16.40;54.50;;;16.64;37.57;97986.03;4980244;28;123348;-76
2023/03/23 02:32:54;;;;;;;;;;;16.40;54.60;;;16.61;37.72;97987.56;4988756;28;123492;-75
2023/03/23 02:35:22;;;;;;;;;;;16.30;54.60;;;16.60;37.81;97988.72;4971424;28;114624;-76
2023/03/23 02:38:01;;;;;;;;;;;16.30;54.80;;;16.61;37.96;97979.22;4966681;28;113465;-76
2023/03/23 02:40:36;;;;;;;;;;;16.30;55.00;;;16.62;38.03;97968.84;4966559;28;124128;-74
2023/03/23 02:43:02;;;;;;;;;;;16.30;55.10;;;16.63;38.00;97960.13;4968180;28;123688;-76
2023/03/23 02:45:30;;;;;;;;;;;16.30;55.20;;;16.65;38.01;97946.59;5000015;28;114554;-76
2023/03/23 02:47:57;;;;;;;;;;;16.30;55.30;;;16.70;37.94;97956.63;4993715;28;113864;-76
2023/03/23 02:50:25;;;;;;;;;;;16.40;55.40;;;16.70;38.11;97954.63;4993004;28;124212;-76
2023/03/23 02:52:53;;;;;;;;;;;16.40;55.40;;;16.73;38.19;97955.88;4965562;28;124547;-77
2023/03/23 02:55:22;;;;;;;;;;;16.40;55.40;;;16.73;37.89;97951.09;4990600;28;115320;-77
2023/03/23 02:57:50;;;;;;;;;;;16.40;55.50;;;16.73;38.32;97953.88;4978377;28;114688;-78
2023/03/23 03:00:18;;;;;;;;;;;16.40;55.50;;;16.76;37.99;97955.94;4980064;28;124223;-75
2023/03/23 03:02:47;;;;;;;;;;;16.40;55.60;;;16.76;38.34;97939.22;4966488;28;123827;-75
2023/03/23 03:05:22;;;;;;;;;;;16.40;55.60;;;16.78;38.13;97936.06;4953072;28;113471;-75
2023/03/23 03:08:01;;;;;;;;;;;16.50;55.80;;;16.78;38.37;97938.84;4985443;28;112887;-74
2023/03/23 03:10:33;;;;;;;;;;;16.50;55.80;;;16.78;38.36;97939.66;4967577;28;124795;-75
2023/03/23 03:13:19;;;;;;;;;;;16.50;55.90;;;16.78;38.00;97934.06;4976895;28;124640;-75
2023/03/23 03:15:51;;;;;;;;;;;16.40;55.80;;;16.75;38.27;97926.44;4990704;28;113395;-76
2023/03/23 03:18:33;;;;;;;;;;;16.40;55.80;;;16.70;38.41;97937.09;4967486;28;113822;-77
2023/03/23 03:21:03;;;;;;;;;;;16.40;55.90;;;16.68;38.63;97929.09;4967166;28;124423;-76
2023/03/23 03:23:32;;;;;;;;;;;16.40;56.00;;;16.68;38.65;97933.88;4969369;28;124169;-78
2023/03/23 03:26:00;;;;;;;;;;;16.40;56.10;;;16.68;38.49;97934.69;4967829;28;114721;-76
2023/03/23 03:28:27;;;;;;;;;;;16.40;56.10;;;16.66;38.53;97931.47;4951513;28;112739;-75
2023/03/23 03:30:56;;;;;;;;;;;16.40;56.10;;;16.64;38.48;97933.84;4986267;28;124184;-77
2023/03/23 03:33:26;;;;;;;;;;;16.40;56.10;;;16.62;38.56;97936.19;4982026;28;123253;-76
2023/03/23 03:35:54;;;;;;;;;;;16.30;56.10;;;16.61;38.72;97926.22;4966501;28;114537;-76
2023/03/23 03:38:21;;;;;;;;;;;16.30;56.20;;;16.59;38.58;97942.50;4972926;28;113896;-80
2023/03/23 03:40:47;;;;;;;;;;;16.30;56.20;;;16.56;38.78;97941.28;4970371;28;124407;-81
2023/03/23 03:43:14;;;;;;;;;;;16.30;56.30;;;16.54;38.73;97938.03;4954153;28;124213;-79
2023/03/23 03:45:41;;;;;;;;;;;16.20;56.20;;;16.55;38.63;97933.28;4979657;28;114019;-79
2023/03/23 03:48:08;;;;;;;;;;;16.20;56.40;;;16.55;38.78;97930.50;4952518;28;114196;-80
2023/03/23 03:50:35;;;;;;;;;;;16.20;56.30;;;16.56;38.82;97929.31;4964290;28;124116;-78
2023/03/23 03:53:01;;;;;;;;;;;16.20;56.40;;;16.54;38.68;97924.09;4984968;28;123961;-80
2023/03/23 03:55:27;;;;;;;;;;;16.20;56.40;;;16.56;39.02;97923.75;4970477;28;114218;-79
2023/03/23 03:57:55;;;;;;;;;;;16.20;56.40;;;16.57;38.88;97917.78;4971378;28;113792;-79
2023/03/23 04:00:22;;;;;;;;;;;16.20;56.50;;;16.59;38.71;97913.81;4970205;28;124505;-80
2023/03/23 04:02:53;;;;;;;;;;;16.20;56.50;;;16.61;39.02;97915.06;4972837;28;123918;-79
2023/03/23 04:05:22;;;;;;;;;;;16.30;56.60;;;16.63;38.97;97917.47;4970622;28;115068;-79
2023/03/23 04:07:51;;;;;;;;;;;16.30;56.60;;;16.66;38.82;97914.75;4972916;28;113916;-79
2023/03/23 04:10:21;;;;;;;;;;;16.30;56.60;;;16.67;38.71;97918.34;4967820;28;124626;-78
2023/03/23 04:12:49;;;;;;;;;;;16.30;56.70;;;16.69;38.84;97924.34;4972349;28;123659;-80
2023/03/23 04:15:15;;;;;;;;;;;16.30;56.80;;;16.68;38.95;97922.72;4970783;28;115055;-80
2023/03/23 04:17:42;;;;;;;;;;;16.30;56.90;;;16.67;38.78;97915.53;4969328;28;113801;-79
2023/03/23 04:20:14;;;;;;;;;;;16.30;56.90;;;16.65;39.21;97929.84;4988694;28;123741;-78
2023/03/23 04:22:43;;;;;;;;;;;16.30;57.00;;;16.66;39.08;97931.47;5000519;28;124617;-76
2023/03/23 04:25:11;;;;;;;;;;;16.30;57.00;;;16.66;39.12;97936.25;4972140;28;114315;-75
2023/03/23 04:27:43;;;;;;;;;;;16.30;57.10;;;16.65;39.19;97935.44;4967844;28;113382;-76
2023/03/23 04:30:11;;;;;;;;;;;16.30;57.10;;;16.64;38.96;97930.25;4973005;28;124245;-75
2023/03/23 04:32:40;;;;;;;;;;;16.30;57.20;;;16.64;39.26;97921.88;4983997;28;124743;-76
2023/03/23 04:35:08;;;;;;;;;;;16.30;57.20;;;16.64;39.19;97928.25;4968003;28;115579;-75
2023/03/23 04:37:36;;;;;;;;;;;16.30;57.20;;;16.64;39.32;97931.03;4969764;28;115118;-79
2023/03/23 04:40:11;;;;;;;;;;;16.30;57.20;;;16.65;39.31;97921.47;4961980;28;124805;-76
2023/03/23 04:42:38;;;;;;;;;;;16.30;57.30;;;16.67;39.30;97910.75;4978419;28;124306;-75
2023/03/23 04:45:06;;;;;;;;;;;16.30;57.40;;;16.70;39.05;97929.53;4969877;28;114509;-76
2023/03/23 04:47:39;;;;;;;;;;;16.40;57.40;;;16.74;39.20;97916.47;4972194;28;113480;-75
2023/03/23 04:50:11;;;;;;;;;;;16.40;57.40;;;16.75;39.14;97920.84;4964408;28;124418;-76
2023/03/23 04:52:40;;;;;;;;;;;16.40;57.50;;;16.75;39.25;97918.06;4967024;28;124685;-75
2023/03/23 04:55:08;;;;;;;;;;;16.40;57.50;;;16.75;39.22;97925.63;4983878;28;114412;-75
2023/03/23 04:57:34;;;;;;;;;;;16.40;57.60;;;16.75;39.42;97925.63;4979372;28;113501;-78
2023/03/23 05:00:08;;;;;;;;;;;16.30;57.60;;;16.74;39.35;97926.81;4984188;28;124430;-77
2023/03/23 05:02:36;;;;;;;;;;;16.40;57.70;;;16.71;39.46;97928.38;4971402;28;124006;-78
2023/03/23 05:05:02;;;;;;;;;;;16.40;57.70;;;16.69;39.49;97925.16;5002511;28;114327;-78
2023/03/23 05:07:29;;;;;;;;;;;16.40;57.70;;;16.70;39.31;97925.94;4969223;28;114437;-75
2023/03/23 05:09:55;;;;;;;;;;;16.40;57.80;;;16.71;39.44;97927.53;4969083;28;124561;-76
2023/03/23 05:12:22;;;;;;;;;;;16.40;57.90;;;16.70;39.63;97921.16;4978579;28;123813;-76
2023/03/23 05:14:48;;;;;;;;;;;16.40;57.90;;;16.71;39.47;97917.22;4968922;28;114245;-78
2023/03/23 05:17:16;;;;;;;;;;;16.30;57.90;;;16.71;39.32;97922.78;4972697;28;113809;-75
2023/03/23 05:19:47;;;;;;;;;;;16.30;58.00;;;16.73;39.51;97920.41;4968419;28;124448;-78
2023/03/23 05:22:14;;;;;;;;;;;16.30;58.00;;;16.74;39.50;97918.47;4968690;28;124326;-76
2023/03/23 05:24:42;;;;;;;;;;;16.30;58.00;;;16.74;39.28;97919.25;4967007;28;115886;-76
2023/03/23 05:27:10;;;;;;;;;;;16.40;58.00;;;16.75;39.42;97918.06;4983946;28;115142;-75
2023/03/23 05:29:37;;;;;;;;;;;16.40;58.00;;;16.74;39.49;97910.88;4980258;28;124862;-76
2023/03/23 05:32:05;;;;;;;;;;;16.40;58.00;;;16.77;39.38;97917.72;4951292;28;124035;-76
2023/03/23 05:34:32;;;;;;;;;;;16.40;58.00;;;16.78;39.40;97917.34;4962106;28;114503;-79
2023/03/23 05:37:00;;;;;;;;;;;16.40;58.00;;;16.79;39.33;97918.13;4961235;28;113708;-77
2023/03/23 05:39:30;;;;;;;;;;;16.40;57.90;;;16.80;39.33;97919.75;4949099;28;124371;-77
2023/03/23 05:41:57;;;;;;;;;;;16.40;57.90;;;16.82;39.42;97924.94;4981018;28;124112;-75
2023/03/23 05:44:24;;;;;;;;;;;16.40;57.90;;;16.83;39.23;97921.00;4979893;28;114077;-74
2023/03/23 05:46:50;;;;;;;;;;;16.50;58.00;;;16.86;39.38;97915.47;4954687;28;113690;-74
2023/03/23 05:49:16;;;;;;;;;;;16.50;57.90;;;16.88;39.40;97915.91;4969903;28;123159;-74
2023/03/23 05:51:44;;;;;;;;;;;16.50;57.80;;;16.90;39.25;97921.09;4973820;28;123570;-76
2023/03/23 05:54:10;;;;;;;;;;;16.50;57.80;;;16.92;39.27;97918.72;4958610;28;114368;-75
2023/03/23 05:56:37;;;;;;;;;;;16.50;57.80;;;16.93;39.11;97928.72;4968278;28;113909;-75
2023/03/23 05:59:03;;;;;;;;;;;16.60;57.80;;;16.95;39.17;97932.75;4968417;28;124223;-76
2023/03/23 06:01:29;;;;;;;;;;;16.60;57.80;;;16.96;39.01;97927.97;4969077;28;123791;-75
2023/03/23 06:03:58;;;;;;;;;;;16.60;57.80;;;16.99;39.17;97935.59;4969147;28;114716;-75
2023/03/23 06:06:25;;;;;;;;;;;16.60;57.80;;;17.03;39.28;97939.22;4968730;28;114484;-76
2023/03/23 06:08:52;;;;;;;;;;;16.60;57.80;;;17.04;39.11;97952.00;4999411;28;125167;-74
2023/03/23 06:11:18;;;;;;;;;;;16.60;57.80;;;17.06;39.03;97944.06;4971068;28;123634;-74
2023/03/23 06:13:45;;;;;;;;;;;16.60;58.50;;;17.08;39.12;97954.84;4967253;28;115424;-74
2023/03/23 06:16:12;;;;;;;;;;;16.70;57.80;;;17.09;39.40;97954.47;4967473;28;114340;-76
2023/03/23 06:18:40;;;;;;;;;;;16.70;57.80;;;17.12;38.94;97959.31;4966868;28;123317;-74
2023/03/23 06:21:07;;;;;;;;;;;16.70;57.80;;;17.14;38.92;97965.31;4966275;28;124912;-78
2023/03/23 06:23:34;;;;;;;;;;;16.60;57.70;;;17.15;38.79;97966.91;4959902;28;114582;-76
2023/03/23 06:26:05;;;;;;;;;;;16.80;57.70;;;17.15;38.86;97958.56;4964242;28;113896;-76
2023/03/23 06:28:31;;;;;;;;;;;16.80;57.70;;;17.16;38.79;97964.94;4961449;28;124283;-76
2023/03/23 06:31:04;;;;;;;;;;;16.80;57.70;;;17.18;39.02;97966.16;4964480;28;123848;-76
2023/03/23 06:33:30;;;;;;;;;;;16.80;57.70;;;17.19;39.12;97976.16;4961703;28;114496;-76
2023/03/23 06:35:57;;;;;;;;;;;16.80;57.70;;;17.20;39.00;97969.38;4959260;28;112946;-76
2023/03/23 06:38:24;;;;;;;;;;;16.80;57.70;;;17.22;38.81;97980.16;4954168;28;124353;-75
2023/03/23 06:40:55;;;;;;;;;;;16.80;57.70;;;17.23;38.95;97977.00;4965911;28;123847;-75
2023/03/23 06:43:21;;;;;;;;;;;16.90;57.80;;;17.25;38.99;97973.84;4961655;28;112801;-75
2023/03/23 06:45:48;;;;;;;;;;;16.90;57.70;;;17.27;39.00;97973.47;4953784;28;113953;-76
2023/03/23 06:48:14;;;;;;;;;;;16.90;57.70;;;17.29;38.86;97980.28;4959186;28;124500;-75
2023/03/23 06:50:45;;;;;;;;;;;16.90;57.70;;;17.32;38.90;97978.72;4968907;28;124042;-76
2023/03/23 06:53:11;;;;;;;;;;;17.00;57.80;;;17.34;39.00;97976.38;4966500;28;114527;-82
2023/03/23 06:55:38;;;;;;;;;;;17.00;57.80;;;17.36;38.96;97993.56;4981304;28;113981;-76
2023/03/23 06:58:05;;;;;;;;;;;17.00;57.70;;;17.39;38.76;97984.41;4954591;28;124349;-75
2023/03/23 07:00:33;;;;;;;;;;;17.00;57.70;;;17.41;38.86;97993.22;4966553;28;124113;-74
2023/03/23 07:02:59;;;;;;;;;;;17.00;57.70;;;17.42;38.66;97994.81;4996587;28;115342;-75
2023/03/23 07:05:26;;;;;;;;;;;17.10;57.80;;;17.43;38.71;97993.63;4951541;28;114284;-76
2023/03/23 07:07:52;;;;;;;;;;;17.10;57.80;;;17.44;38.63;97998.84;4955863;28;124548;-75
2023/03/23 07:10:19;;;;;;;;;;;17.10;57.80;;;17.44;38.84;97998.06;4969328;28;124269;-75
2023/03/23 07:12:45;;;;;;;;;;;17.00;57.70;;;17.44;38.69;97998.84;4961643;28;114688;-75
2023/03/23 07:15:12;;;;;;;;;;;17.10;57.80;;;17.44;38.87;98003.63;4958687;28;112749;-75
2023/03/23 07:17:40;;;;;;;;;;;17.00;57.70;;;17.45;38.85;98003.25;4956395;28;124233;-77
2023/03/23 07:20:07;;;;;;;;;;;17.10;57.90;;;17.47;38.81;98000.09;4962253;28;123964;-75
2023/03/23 07:22:34;;;;;;;;;;;17.10;57.80;;;17.46;38.78;98006.84;4952132;28;114282;-76
2023/03/23 07:25:01;;;;;;;;;;;17.10;57.80;;;17.47;38.74;98018.84;4992484;28;113510;-78
2023/03/23 07:27:28;;;;;;;;;;;17.10;57.80;;;17.43;38.91;98011.19;4965618;28;124485;-75
2023/03/23 07:29:54;;;;;;;;;;;17.10;57.80;;;17.43;39.02;98025.16;4992032;28;123717;-75
2023/03/23 07:32:21;;;;;;;;;;;17.10;57.90;;;17.42;39.03;98022.75;4964871;28;113166;-74
2023/03/23 07:34:47;;;;;;;;;;;17.10;58.00;;;17.42;39.11;98034.72;4950971;28;113709;-74
2023/03/23 07:37:13;;;;;;;;;;;17.10;58.10;;;17.44;39.07;98034.34;4981713;28;124986;-74
2023/03/23 07:39:40;;;;;;;;;;;17.10;58.20;;;17.45;39.25;98042.34;4983702;28;123847;-74
2023/03/23 07:42:07;;;;;;;;;;;17.10;58.30;;;17.46;39.24;98034.75;4955232;28;114457;-74
2023/03/23 07:44:34;;;;;;;;;;;17.10;58.30;;;17.48;39.19;98046.38;4982953;28;114144;-75
2023/03/23 07:47:00;;;;;;;;;;;17.10;58.40;;;17.47;39.33;98047.56;4956053;28;124232;-75
2023/03/23 07:49:27;;;;;;;;;;;17.10;58.50;;;17.48;39.39;98048.38;4964494;28;123422;-75
2023/03/23 07:51:53;;;;;;;;;;;17.10;58.50;;;17.48;39.53;98031.59;4966142;28;115550;-74
2023/03/23 07:54:19;;;;;;;;;;;17.10;58.60;;;17.51;39.57;98033.63;4987975;28;113811;-73
2023/03/23 07:56:46;;;;;;;;;;;17.10;58.70;;;17.54;39.49;98039.25;4971537;28;124414;-73
2023/03/23 07:59:12;;;;;;;;;;;17.20;58.90;;;17.55;39.71;98038.09;4971722;28;123968;-73
2023/03/23 08:01:39;;;;;;;;;;;17.20;59.00;;;17.58;39.60;98048.50;4966085;28;114362;-72
2023/03/23 08:04:05;;;;;;;;;;;17.20;59.20;;;17.59;39.76;98044.53;4960712;28;113619;-72
2023/03/23 08:06:33;;;;;;;;;;;17.20;59.90;;;17.58;39.91;98045.72;4967508;28;124457;-76
2023/03/23 08:08:59;;;;;;;;;;;17.20;59.60;;;17.55;40.29;98049.28;4956336;28;123899;-76
2023/03/23 08:11:26;;;;;;;;;;;17.20;59.70;;;17.55;40.44;98066.03;4967402;28;114647;-76
2023/03/23 08:13:53;;;;;;;;;;;17.20;60.10;;;17.53;40.62;98062.81;4970751;28;114220;-76
2023/03/23 08:16:19;;;;;;;;;;;17.20;60.30;;;17.52;40.65;98075.16;4971530;28;124991;-75
2023/03/23 08:18:46;;;;;;;;;;;17.20;60.40;;;17.51;41.04;98062.38;4968283;28;124789;-76
2023/03/23 08:21:13;;;;;;;;;;;17.20;60.90;;;17.52;41.13;98063.19;4968010;28;114351;-73
2023/03/23 08:23:39;;;;;;;;;;;17.20;61.20;;;17.51;41.22;98054.00;4968455;28;113934;-75
2023/03/23 08:26:07;;;;;;;;;;;17.20;61.40;;;17.51;41.33;98062.38;4967549;28;123944;-74
2023/03/23 08:28:34;;;;;;;;;;;17.20;61.60;;;17.54;41.44;98066.41;4963831;28;124526;-72
2023/03/23 08:31:11;;;;;;;;;;;17.20;61.70;;;17.57;41.56;98068.44;4995326;28;116635;-73
2023/03/23 08:33:38;;;;;;;;;;;17.20;61.90;;;17.61;41.84;98069.31;4969963;28;114503;-75
2023/03/23 08:36:05;;;;;;;;;;;17.30;62.20;;;17.64;41.83;98080.53;4999247;28;125163;-75
2023/03/23 08:38:32;;;;;;;;;;;17.30;62.50;;;17.67;41.83;98082.56;4969764;28;123576;-75
2023/03/23 08:41:04;;;;;;;;;;;17.30;62.60;;;17.70;42.22;98083.00;4963567;28;114384;-75
2023/03/23 08:43:34;;;;;;;;;;;17.30;62.90;;;17.67;42.16;98084.53;4969577;28;113646;-76
2023/03/23 08:46:06;;;;;;;;;;;17.30;63.00;;;17.67;42.38;98074.16;4968009;28;124241;-77
2023/03/23 08:48:35;;;;;;;;;;;17.30;63.10;;;17.68;42.29;98083.38;4969836;28;123143;-75
2023/03/23 08:51:02;;;;;;;;;;;17.40;63.40;;;17.65;42.58;98082.16;4967307;28;114266;-78
2023/03/23 08:53:31;;;;;;;;;;;17.30;63.70;;;17.65;42.63;98093.31;4986632;28;113343;-74
2023/03/23 08:56:09;;;;;;;;;;;17.30;63.80;;;17.64;42.84;98097.28;4905652;28;1860101;-75
2023/03/23 08:58:37;;;;;;;;;;;17.30;64.10;;;17.64;43.03;98108.44;4969212;28;123949;-76
2023/03/23 09:01:06;;;;;;;;;;;17.30;64.30;;;17.63;42.97;98098.47;4987152;28;113249;-75
2023/03/23 09:03:33;;;;;;;;;;;17.30;64.40;;;17.66;43.18;98117.28;4975503;28;113819;-75
2023/03/23 09:06:01;;;;;;;;;;;17.30;64.40;;;17.68;43.10;98102.94;4968625;28;123494;-76
2023/03/23 09:08:31;;;;;;;;;;;17.40;64.60;;;17.70;43.16;98103.34;4968523;28;124640;-75
2023/03/23 09:11:02;;;;;;;;;;;17.40;64.80;;;17.72;43.34;98103.78;4969250;28;114380;-75
2023/03/23 09:13:29;;;;;;;;;;;17.30;64.90;;;17.73;43.30;98104.56;4968295;28;113994;-74
2023/03/23 09:15:55;;;;;;;;;;;17.30;64.80;;;17.76;43.47;98103.81;4995879;28;124353;-75
2023/03/23 09:18:22;;;;;;;;;;;17.30;65.00;;;17.76;43.21;98115.81;4964546;28;123022;-74
2023/03/23 09:20:49;;;;;;;;;;;17.40;65.10;;;17.74;43.20;98120.97;4985052;28;113935;-75
2023/03/23 09:23:16;;;;;;;;;;;17.40;65.00;;;17.74;43.10;98125.78;4968834;28;113978;-76
2023/03/23 09:25:43;;;;;;;;;;;17.40;64.90;;;17.73;43.21;98126.94;4967001;28;123988;-74
2023/03/23 09:28:09;;;;;;;;;;;17.40;65.00;;;17.72;43.26;98131.72;4969514;28;122642;-76
2023/03/23 09:30:37;;;;;;;;;;;17.40;65.10;;;17.74;43.17;98134.16;4966869;28;115825;-76
2023/03/23 09:33:04;;;;;;;;;;;17.40;65.00;;;17.75;43.26;98132.97;4967222;28;114722;-74
2023/03/23 09:35:34;;;;;;;;;;;17.40;65.10;;;17.77;43.34;98139.78;4975344;28;124697;-75
2023/03/23 09:38:01;;;;;;;;;;;16.50;64.50;;;17.76;43.40;98137.34;4970899;28;123492;-76
2023/03/23 09:40:46;;;;;;;;;;;17.40;65.30;;;17.76;43.19;98134.56;4955914;28;114691;-76
2023/03/23 09:43:26;;;;;;;;;;;17.40;65.30;;;17.73;43.13;98133.34;4967837;28;113312;-76
2023/03/23 09:46:49;;;;;;;;;;;17.40;65.20;;;17.69;43.52;98154.03;4969130;28;124388;-76
2023/03/23 09:49:24;;;;;;;;;;;17.40;65.30;;;17.70;43.25;98144.44;4921871;28;124128;-75
2023/03/23 09:51:52;;;;;;;;;;;17.40;65.40;;;17.74;43.45;98139.75;4897486;28;113410;-75
2023/03/23 09:54:39;;;;;;;;;;;17.40;65.40;;;17.76;43.26;98137.34;4920482;28;113857;-76
2023/03/23 09:57:13;;;;;;;;;;;17.40;65.30;;;17.78;43.00;98146.16;4928965;28;124381;-76
2023/03/23 09:59:41;;;;;;;;;;;17.40;65.30;;;17.78;43.24;98149.75;4916916;28;124130;-75
2023/03/23 10:02:17;;;;;;;;;;;17.40;65.60;;;17.80;43.17;98139.06;4904224;28;114993;-76
2023/03/23 10:04:48;;;;;;;;;;;17.40;65.70;;;17.85;43.45;98157.50;4911537;28;113774;-76
2023/03/23 10:07:18;;;;;;;;;;;17.40;65.90;;;17.85;43.60;98158.28;4914498;28;124057;-75
2023/03/23 10:09:50;;;;;;;;;;;17.50;66.10;;;17.88;43.48;98162.31;4906772;28;123906;-75
2023/03/23 10:12:54;;;;;;;;;;;17.50;66.20;;;17.86;43.61;98168.28;4912575;28;114448;-76
2023/03/23 10:15:25;;;;;;;;;;;17.40;66.20;;;17.84;43.73;98151.09;4913241;28;113474;-75
2023/03/23 10:18:02;;;;;;;;;;;17.50;66.60;;;17.83;43.70;98163.44;4920993;28;124055;-75
2023/03/23 10:20:37;;;;;;;;;;;17.50;66.50;;;17.85;43.80;98157.50;4954119;28;123950;-76
2023/03/23 10:23:23;;;;;;;;;;;17.50;66.70;;;17.90;43.70;98159.16;4988542;28;115782;-74
2023/03/23 10:26:14;;;;;;;;;;;17.50;66.70;;;17.93;43.61;98159.22;4980738;28;115573;-73
2023/03/23 10:28:47;;;;;;;;;;;17.50;66.70;;;17.97;43.67;98162.03;4948497;28;123639;-75
2023/03/23 10:31:20;;;;;;;;;;;17.60;66.70;;;18.02;43.59;98172.91;4966840;28;123453;-74
2023/03/23 10:33:52;;;;;;;;;;;17.60;66.60;;;18.05;43.59;98159.00;4967873;28;114932;-74
2023/03/23 10:36:24;;;;;;;;;;;17.70;66.70;;;18.07;43.70;98159.41;4970851;28;113583;-74
2023/03/23 10:38:59;;;;;;;;;;;17.60;66.60;;;18.08;43.65;98161.03;4985987;28;124359;-76
2023/03/23 10:41:26;;;;;;;;;;;17.70;66.60;;;18.10;43.75;98153.06;4968343;28;122916;-74
2023/03/23 10:43:56;;;;;;;;;;;17.80;66.80;;;18.13;43.66;98159.88;4982684;28;114554;-74
2023/03/23 10:46:41;;;;;;;;;;;17.80;66.80;;;18.16;43.68;98161.09;4954686;28;114128;-75
2023/03/23 10:49:11;;;;;;;;;;;17.80;66.90;;;18.18;43.66;98170.72;4947108;28;124533;-78
2023/03/23 10:51:44;;;;;;;;;;;17.80;66.70;;;18.19;43.66;98166.78;4981168;28;124257;-75
2023/03/23 10:54:10;;;;;;;;;;;17.80;66.80;;;18.22;43.68;98165.22;4953727;28;114347;-75
2023/03/23 10:56:42;;;;;;;;;;;17.80;66.90;;;18.20;43.83;98159.19;4954422;28;113716;-75
2023/03/23 10:59:13;;;;;;;;;;;17.80;66.90;;;18.19;44.07;98160.34;4955147;28;124231;-79
2023/03/23 11:01:43;;;;;;;;;;;17.90;67.10;;;18.21;43.98;98149.59;4956641;28;123797;-78
2023/03/23 11:04:14;;;;;;;;;;;17.90;67.30;;;18.27;43.92;98150.91;4955509;28;114262;-75
2023/03/23 11:06:49;;;;;;;;;;;17.90;67.30;;;18.33;43.81;98152.16;4957586;28;113477;-75
2023/03/23 11:09:18;;;;;;;;;;;17.90;67.00;;;18.39;43.61;98147.03;4954833;28;124138;-74
2023/03/23 11:11:55;;;;;;;;;;;18.00;67.10;;;18.47;43.56;98154.34;4957357;28;123895;-75
2023/03/23 11:14:27;;;;;;;;;;;18.10;67.10;;;18.50;43.36;98143.19;4964214;28;115638;-75
2023/03/23 11:17:02;;;;;;;;;;;18.10;66.90;;;18.51;43.20;98141.19;4953165;28;115148;-74
2023/03/23 11:19:30;;;;;;;;;;;18.10;66.80;;;18.52;43.21;98143.59;4946510;28;123981;-75
2023/03/23 11:22:04;;;;;;;;;;;18.20;66.80;;;18.55;43.35;98148.44;4949363;28;124829;-74